Time;durP1;ratioP1;P1;durP2;ratioP2;P2;SDS_P1;SDS_P2;PMS_P1;PMS_P2;Temp;Humidity;BMP_temperature;BMP_pressure;BME280_temperature;BME280_humidity;BME280_pressure;Samples;Min_cycle;Max_cycle;Signal;HPM_P1;HPM_P2
2023/02/05 00:02:01;;;;;;;9.98;7.72;;;;;;;;;;4991056;28;20408;-81
2023/02/05 00:04:27;;;;;;;9.02;6.90;;;;;;;;;;4993385;28;20396;-80
2023/02/05 00:06:54;;;;;;;11.07;8.65;;;;;;;;;;4989112;28;20484;-81
2023/02/05 00:09:20;;;;;;;9.90;7.35;;;;;;;;;;4988123;28;20459;-82
2023/02/05 00:11:46;;;;;;;9.35;6.70;;;;;;;;;;4989726;28;20379;-81
2023/02/05 00:14:12;;;;;;;7.78;6.20;;;;;;;;;;4989535;28;20381;-81
2023/02/05 00:16:39;;;;;;;9.15;5.97;;;;;;;;;;4988911;28;20404;-80
2023/02/05 00:19:05;;;;;;;8.88;6.45;;;;;;;;;;4989203;28;20413;-82
2023/02/05 00:21:32;;;;;;;7.53;5.80;;;;;;;;;;4983725;28;20832;-81
2023/02/05 00:23:58;;;;;;;7.78;6.07;;;;;;;;;;4988892;28;20405;-82
2023/02/05 00:26:34;;;;;;;6.85;5.47;;;;;;;;;;4991000;28;20677;-83
2023/02/05 00:29:00;;;;;;;8.52;6.53;;;;;;;;;;5002445;28;20393;-82
2023/02/05 00:31:26;;;;;;;8.02;6.45;;;;;;;;;;4986506;28;20409;-82
2023/02/05 00:33:52;;;;;;;7.72;6.82;;;;;;;;;;4989099;28;20752;-81
2023/02/05 00:36:19;;;;;;;10.98;8.45;;;;;;;;;;4987610;28;20437;-82
2023/02/05 00:38:45;;;;;;;10.60;8.23;;;;;;;;;;4987929;28;20474;-81
2023/02/05 00:41:12;;;;;;;12.95;9.02;;;;;;;;;;4989177;28;20388;-81
2023/02/05 00:43:38;;;;;;;11.43;8.60;;;;;;;;;;4985106;28;20389;-82
2023/02/05 00:46:05;;;;;;;9.65;7.93;;;;;;;;;;4989111;28;20400;-81
2023/02/05 00:48:31;;;;;;;9.65;8.00;;;;;;;;;;4989128;28;20874;-81
2023/02/05 00:50:57;;;;;;;11.70;7.38;;;;;;;;;;4986848;28;20391;-82
2023/02/05 00:53:23;;;;;;;9.60;7.23;;;;;;;;;;4988033;28;20397;-80
2023/02/05 00:55:49;;;;;;;9.93;8.05;;;;;;;;;;4987000;28;20439;-80
2023/02/05 00:58:16;;;;;;;11.73;8.13;;;;;;;;;;4988668;28;20385;-80
2023/02/05 01:00:42;;;;;;;9.93;8.23;;;;;;;;;;4987474;28;20459;-81
2023/02/05 01:03:09;;;;;;;8.85;7.85;;;;;;;;;;4986901;28;20396;-81
2023/02/05 01:05:35;;;;;;;8.63;7.03;;;;;;;;;;4988990;28;20416;-81
2023/02/05 01:08:02;;;;;;;9.95;7.10;;;;;;;;;;4988556;28;20381;-81
2023/02/05 01:10:28;;;;;;;9.50;7.20;;;;;;;;;;4988012;28;20950;-82
2023/02/05 01:12:54;;;;;;;9.27;7.35;;;;;;;;;;4985779;28;20867;-81
2023/02/05 01:15:20;;;;;;;8.60;6.67;;;;;;;;;;4987531;28;20381;-81
2023/02/05 01:17:46;;;;;;;9.63;7.13;;;;;;;;;;4987817;28;20419;-82
2023/02/05 01:20:13;;;;;;;8.43;7.57;;;;;;;;;;4985255;28;20404;-81
2023/02/05 01:22:39;;;;;;;9.45;6.90;;;;;;;;;;4986845;28;20698;-81
2023/02/05 01:25:06;;;;;;;9.43;6.82;;;;;;;;;;4993394;28;20408;-81
2023/02/05 01:27:33;;;;;;;9.15;7.30;;;;;;;;;;4987683;28;20395;-81
2023/02/05 01:29:59;;;;;;;7.43;6.63;;;;;;;;;;4988756;28;20743;-80
2023/02/05 01:32:25;;;;;;;7.97;6.60;;;;;;;;;;4990480;28;20729;-81
2023/02/05 01:34:53;;;;;;;8.38;6.88;;;;;;;;;;4987420;28;20413;-81
2023/02/05 01:37:19;;;;;;;9.30;7.13;;;;;;;;;;4987172;28;20387;-80
2023/02/05 01:39:45;;;;;;;7.77;6.97;;;;;;;;;;4987201;28;20505;-81
2023/02/05 01:42:21;;;;;;;7.75;6.93;;;;;;;;;;4985125;28;20501;-80
2023/02/05 01:45:06;;;;;;;10.85;7.05;;;;;;;;;;4985256;28;20373;-82
2023/02/05 01:47:32;;;;;;;10.90;6.97;;;;;;;;;;5000521;28;20377;-81
2023/02/05 01:49:58;;;;;;;8.75;6.72;;;;;;;;;;4987056;28;20455;-81
2023/02/05 01:52:24;;;;;;;7.75;6.45;;;;;;;;;;4987734;28;20403;-81
2023/02/05 01:54:52;;;;;;;8.70;6.38;;;;;;;;;;4990022;28;20384;-82
2023/02/05 01:57:21;;;;;;;8.75;6.10;;;;;;;;;;4989059;28;20369;-81
2023/02/05 01:59:48;;;;;;;8.45;6.40;;;;;;;;;;4985274;28;20413;-80
2023/02/05 02:02:15;;;;;;;7.63;6.63;;;;;;;;;;4987826;28;20385;-80
2023/02/05 02:04:42;;;;;;;8.43;7.00;;;;;;;;;;4987498;28;20385;-81
2023/02/05 02:07:11;;;;;;;8.30;7.00;;;;;;;;;;4985755;28;20501;-81
2023/02/05 02:09:39;;;;;;;7.88;6.47;;;;;;;;;;4985755;28;20401;-82
2023/02/05 02:12:05;;;;;;;8.48;6.72;;;;;;;;;;4986384;28;20400;-82
2023/02/05 02:14:31;;;;;;;8.82;6.80;;;;;;;;;;4988643;28;20396;-80
2023/02/05 02:16:59;;;;;;;8.48;7.18;;;;;;;;;;4985851;28;20972;-80
2023/02/05 02:19:35;;;;;;;8.43;6.45;;;;;;;;;;4987466;28;20476;-81
2023/02/05 02:22:08;;;;;;;7.70;6.30;;;;;;;;;;4991789;28;20404;-82
2023/02/05 02:24:50;;;;;;;6.80;5.82;;;;;;;;;;4990713;28;20399;-81
2023/02/05 02:27:36;;;;;;;7.82;6.22;;;;;;;;;;4989775;28;20413;-82
2023/02/05 02:30:05;;;;;;;7.28;6.03;;;;;;;;;;4990760;28;20483;-81
2023/02/05 02:32:54;;;;;;;10.30;7.05;;;;;;;;;;4991222;28;20377;-81
2023/02/05 02:35:25;;;;;;;7.35;6.50;;;;;;;;;;4984898;28;20408;-80
2023/02/05 02:37:54;;;;;;;8.35;6.80;;;;;;;;;;4991875;28;20418;-82
2023/02/05 02:40:24;;;;;;;12.25;7.10;;;;;;;;;;5189858;22;20429;-82
2023/02/05 02:42:57;;;;;;;8.55;7.20;;;;;;;;;;5019320;28;20392;-81
2023/02/05 02:45:26;;;;;;;9.73;7.30;;;;;;;;;;5012835;28;20406;-82
2023/02/05 02:47:54;;;;;;;8.32;6.78;;;;;;;;;;5010750;28;20391;-81
2023/02/05 02:50:33;;;;;;;10.00;7.30;;;;;;;;;;4997258;28;20381;-80
2023/02/05 02:53:11;;;;;;;8.27;6.13;;;;;;;;;;4995426;28;20459;-81
2023/02/05 02:55:41;;;;;;;9.93;6.77;;;;;;;;;;4991207;28;20417;-80
2023/02/05 02:58:09;;;;;;;7.25;6.55;;;;;;;;;;5011309;28;20379;-79
2023/02/05 03:00:36;;;;;;;6.72;6.03;;;;;;;;;;5011724;28;20531;-80
2023/02/05 03:03:04;;;;;;;7.70;6.43;;;;;;;;;;5011428;28;20776;-81
2023/02/05 03:05:31;;;;;;;10.02;7.20;;;;;;;;;;5011550;28;20398;-79
2023/02/05 03:08:01;;;;;;;9.27;7.07;;;;;;;;;;5010503;28;20390;-80
2023/02/05 03:10:39;;;;;;;6.90;6.20;;;;;;;;;;5029493;28;20397;-81
2023/02/05 03:13:06;;;;;;;8.55;6.65;;;;;;;;;;5013750;28;20900;-81
2023/02/05 03:15:32;;;;;;;8.73;6.97;;;;;;;;;;5022526;28;20401;-81
2023/02/05 03:17:58;;;;;;;7.60;6.47;;;;;;;;;;5011789;28;20391;-80
2023/02/05 03:20:29;;;;;;;8.67;6.60;;;;;;;;;;5028706;28;20417;-82
2023/02/05 03:22:55;;;;;;;8.40;6.75;;;;;;;;;;5027870;28;20428;-81
2023/02/05 03:25:22;;;;;;;8.40;6.75;;;;;;;;;;5027255;28;20393;-81
2023/02/05 03:27:49;;;;;;;7.77;6.77;;;;;;;;;;5025737;28;20401;-80
2023/02/05 03:30:15;;;;;;;8.82;6.78;;;;;;;;;;5025731;28;20555;-82
2023/02/05 03:32:47;;;;;;;8.98;7.28;;;;;;;;;;5029913;28;20396;-81
2023/02/05 03:35:28;;;;;;;8.63;6.65;;;;;;;;;;5029160;28;20397;-81
2023/02/05 03:38:03;;;;;;;8.13;7.07;;;;;;;;;;5028769;28;20468;-79
2023/02/05 03:40:37;;;;;;;10.10;7.68;;;;;;;;;;5014602;28;20418;-80
2023/02/05 03:43:09;;;;;;;9.68;7.15;;;;;;;;;;5023223;28;20397;-81
2023/02/05 03:45:59;;;;;;;8.17;7.33;;;;;;;;;;5012842;28;20920;-80
2023/02/05 03:48:28;;;;;;;10.25;7.50;;;;;;;;;;5018072;28;20400;-81
2023/02/05 03:50:57;;;;;;;7.10;6.33;;;;;;;;;;5030713;28;20412;-81
2023/02/05 03:53:31;;;;;;;9.18;6.90;;;;;;;;;;5026688;28;20396;-82
2023/02/05 03:56:03;;;;;;;7.80;6.43;;;;;;;;;;5029606;28;20416;-81
2023/02/05 03:58:32;;;;;;;8.90;7.45;;;;;;;;;;5027598;28;20397;-80
2023/02/05 04:00:58;;;;;;;8.18;6.80;;;;;;;;;;5028295;28;20408;-81
2023/02/05 04:03:24;;;;;;;8.10;7.20;;;;;;;;;;5029622;28;20401;-81
2023/02/05 04:05:50;;;;;;;9.48;6.65;;;;;;;;;;5029480;28;20910;-80
2023/02/05 04:08:16;;;;;;;9.97;7.13;;;;;;;;;;5020859;28;20568;-82
2023/02/05 04:10:42;;;;;;;7.88;6.50;;;;;;;;;;5021324;28;20393;-81
2023/02/05 04:13:08;;;;;;;9.68;6.55;;;;;;;;;;5022096;28;20402;-82
2023/02/05 04:15:34;;;;;;;7.03;6.07;;;;;;;;;;5026243;28;20472;-81
2023/02/05 04:18:00;;;;;;;8.07;6.65;;;;;;;;;;5023393;28;20394;-81
2023/02/05 04:20:26;;;;;;;7.10;6.32;;;;;;;;;;5009237;28;20403;-81
2023/02/05 04:22:52;;;;;;;7.90;6.53;;;;;;;;;;5008050;28;20414;-81
2023/02/05 04:25:19;;;;;;;7.45;6.57;;;;;;;;;;5021902;28;20405;-81
2023/02/05 04:27:45;;;;;;;8.38;6.20;;;;;;;;;;5017842;28;20804;-81
2023/02/05 04:30:12;;;;;;;7.65;6.38;;;;;;;;;;5013010;28;20897;-81
2023/02/05 04:32:38;;;;;;;8.50;6.20;;;;;;;;;;5022995;28;20418;-81
2023/02/05 04:35:04;;;;;;;10.65;7.18;;;;;;;;;;5026686;28;20390;-81
2023/02/05 04:37:30;;;;;;;9.07;6.80;;;;;;;;;;5029067;28;20373;-82
2023/02/05 04:39:56;;;;;;;7.38;6.18;;;;;;;;;;5028564;28;20407;-82
2023/02/05 04:42:22;;;;;;;7.32;6.50;;;;;;;;;;5034036;28;20377;-81
2023/02/05 04:44:48;;;;;;;9.50;7.10;;;;;;;;;;5027045;28;20398;-81
2023/02/05 04:47:14;;;;;;;8.40;6.90;;;;;;;;;;5019852;28;20399;-82
2023/02/05 04:49:40;;;;;;;8.20;6.43;;;;;;;;;;5007410;28;20773;-80
2023/02/05 04:52:07;;;;;;;7.78;6.78;;;;;;;;;;5009176;28;20371;-82
2023/02/05 04:54:34;;;;;;;7.22;6.38;;;;;;;;;;5022765;28;20539;-81
2023/02/05 04:57:00;;;;;;;7.00;5.97;;;;;;;;;;5028882;28;20384;-81
2023/02/05 04:59:28;;;;;;;8.02;6.40;;;;;;;;;;5026417;28;20409;-82
2023/02/05 05:01:54;;;;;;;10.02;6.65;;;;;;;;;;5029740;28;20720;-80
2023/02/05 05:04:20;;;;;;;6.93;6.10;;;;;;;;;;5028540;28;20389;-82
2023/02/05 05:06:46;;;;;;;7.50;6.10;;;;;;;;;;5025881;28;20398;-81
2023/02/05 05:09:12;;;;;;;8.03;6.30;;;;;;;;;;5023228;28;20961;-83
2023/02/05 05:11:38;;;;;;;8.60;6.47;;;;;;;;;;5024932;28;20382;-82
2023/02/05 05:14:04;;;;;;;7.28;6.53;;;;;;;;;;5009022;28;20456;-81
2023/02/05 05:16:30;;;;;;;7.73;6.80;;;;;;;;;;5008780;28;20375;-82
2023/02/05 05:18:56;;;;;;;8.77;6.43;;;;;;;;;;5007252;28;20770;-80
2023/02/05 05:21:22;;;;;;;8.35;6.70;;;;;;;;;;5009514;28;20398;-82
2023/02/05 05:23:48;;;;;;;7.78;6.80;;;;;;;;;;5023594;28;20402;-80
2023/02/05 05:26:15;;;;;;;9.88;7.35;;;;;;;;;;5018925;28;20393;-79
2023/02/05 05:28:41;;;;;;;8.63;6.60;;;;;;;;;;5024675;28;20401;-79
2023/02/05 05:31:08;;;;;;;8.00;6.80;;;;;;;;;;5014521;28;20407;-82
2023/02/05 05:33:34;;;;;;;7.72;6.53;;;;;;;;;;5009681;28;20379;-81
2023/02/05 05:36:00;;;;;;;9.27;7.32;;;;;;;;;;5006669;28;20401;-81
2023/02/05 05:38:26;;;;;;;8.67;6.33;;;;;;;;;;5015357;28;20504;-81
2023/02/05 05:43:46;;;;;;;8.13;6.05;;;;;;;;;;5018698;28;20474;-81
2023/02/05 05:46:13;;;;;;;7.53;6.20;;;;;;;;;;5024669;28;20394;-80
2023/02/05 05:48:39;;;;;;;7.80;6.68;;;;;;;;;;5009133;28;20403;-81
2023/02/05 05:51:05;;;;;;;8.77;6.50;;;;;;;;;;5026555;28;20400;-81
2023/02/05 05:53:31;;;;;;;8.00;6.88;;;;;;;;;;5028119;28;20393;-81
2023/02/05 05:55:58;;;;;;;8.05;6.20;;;;;;;;;;5026547;28;20374;-82
2023/02/05 05:58:24;;;;;;;8.02;6.65;;;;;;;;;;5028417;28;20393;-81
2023/02/05 06:00:50;;;;;;;7.57;6.45;;;;;;;;;;5026351;28;20415;-82
2023/02/05 06:03:16;;;;;;;7.47;6.65;;;;;;;;;;5019535;28;20397;-81
2023/02/05 06:05:42;;;;;;;9.38;6.68;;;;;;;;;;5031094;28;20401;-80
2023/02/05 06:08:08;;;;;;;7.20;6.40;;;;;;;;;;5029416;28;20426;-81
2023/02/05 06:10:35;;;;;;;7.68;6.20;;;;;;;;;;5030673;28;20385;-81
2023/02/05 06:13:01;;;;;;;8.05;6.47;;;;;;;;;;5021665;28;20405;-81
2023/02/05 06:15:27;;;;;;;7.07;6.18;;;;;;;;;;5011389;28;20394;-80
2023/02/05 06:17:53;;;;;;;8.93;7.00;;;;;;;;;;5010981;28;20413;-79
2023/02/05 06:20:19;;;;;;;8.60;6.28;;;;;;;;;;5028835;28;20820;-81
2023/02/05 06:22:45;;;;;;;6.78;6.07;;;;;;;;;;5021450;28;20414;-80
2023/02/05 06:25:11;;;;;;;7.87;6.33;;;;;;;;;;5023443;28;21051;-81
2023/02/05 06:27:37;;;;;;;8.95;6.72;;;;;;;;;;5028161;28;20455;-80
2023/02/05 06:30:03;;;;;;;9.98;8.50;;;;;;;;;;5030709;28;20377;-81
2023/02/05 06:32:29;;;;;;;11.63;10.13;;;;;;;;;;5027947;28;20461;-81
2023/02/05 06:34:55;;;;;;;9.02;8.13;;;;;;;;;;5019808;28;20405;-82
2023/02/05 06:37:24;;;;;;;9.30;8.30;;;;;;;;;;5029882;28;20469;-81
2023/02/05 06:39:50;;;;;;;8.57;7.78;;;;;;;;;;5023093;28;20457;-82
2023/02/05 06:42:16;;;;;;;9.32;8.10;;;;;;;;;;5019535;28;20425;-82
2023/02/05 06:44:42;;;;;;;9.25;8.32;;;;;;;;;;5012420;28;20367;-81
2023/02/05 06:47:10;;;;;;;9.57;7.18;;;;;;;;;;5010027;28;20758;-81
2023/02/05 06:49:36;;;;;;;8.93;7.47;;;;;;;;;;5011256;28;20478;-82
2023/02/05 06:52:02;;;;;;;8.80;7.03;;;;;;;;;;5011657;28;20419;-82
2023/02/05 06:54:28;;;;;;;8.30;7.15;;;;;;;;;;5011803;28;20786;-81
2023/02/05 06:56:54;;;;;;;8.48;7.47;;;;;;;;;;5011113;28;20379;-81
2023/02/05 06:59:20;;;;;;;10.75;7.65;;;;;;;;;;5011743;28;20866;-80
2023/02/05 07:01:46;;;;;;;8.30;7.28;;;;;;;;;;5011913;28;20841;-82
2023/02/05 07:04:12;;;;;;;9.60;7.80;;;;;;;;;;5012485;28;20379;-82
2023/02/05 07:06:38;;;;;;;9.10;7.25;;;;;;;;;;5011429;28;20368;-81
2023/02/05 07:09:04;;;;;;;7.95;6.90;;;;;;;;;;5010738;28;20383;-81
2023/02/05 07:11:30;;;;;;;12.65;8.02;;;;;;;;;;5011173;28;20382;-81
2023/02/05 07:13:59;;;;;;;10.15;8.98;;;;;;;;;;5015417;28;20492;-80
2023/02/05 07:16:25;;;;;;;12.88;10.88;;;;;;;;;;5014004;28;20397;-80
2023/02/05 07:18:51;;;;;;;16.83;13.57;;;;;;;;;;5029315;28;20409;-80
2023/02/05 07:21:17;;;;;;;16.00;13.05;;;;;;;;;;5026595;28;20392;-79
2023/02/05 07:23:44;;;;;;;14.50;12.68;;;;;;;;;;5018282;28;20398;-80
2023/02/05 07:26:12;;;;;;;13.82;10.52;;;;;;;;;;5015168;28;20881;-80
2023/02/05 07:28:38;;;;;;;12.02;8.68;;;;;;;;;;5028342;28;20381;-80
2023/02/05 07:31:05;;;;;;;9.00;7.90;;;;;;;;;;5019592;28;20870;-81
2023/02/05 07:33:31;;;;;;;9.45;7.85;;;;;;;;;;5017056;28;20519;-81
2023/02/05 07:35:58;;;;;;;9.00;7.57;;;;;;;;;;5028063;28;20404;-80
2023/02/05 07:38:24;;;;;;;10.23;7.87;;;;;;;;;;5025138;28;20515;-82
2023/02/05 07:40:50;;;;;;;10.35;7.95;;;;;;;;;;5014186;28;20438;-81
2023/02/05 07:43:16;;;;;;;13.63;12.20;;;;;;;;;;5008448;28;20440;-80
2023/02/05 07:45:42;;;;;;;30.83;25.88;;;;;;;;;;5013486;28;20411;-81
2023/02/05 07:48:08;;;;;;;24.13;18.67;;;;;;;;;;5007464;28;20402;-81
2023/02/05 07:50:34;;;;;;;26.27;20.33;;;;;;;;;;5017613;28;20445;-80
2023/02/05 07:53:00;;;;;;;27.05;18.63;;;;;;;;;;5027231;28;20514;-80
2023/02/05 07:55:27;;;;;;;19.33;14.18;;;;;;;;;;5029215;28;20992;-80
2023/02/05 07:57:53;;;;;;;25.40;17.85;;;;;;;;;;5027600;28;20495;-81
2023/02/05 08:00:19;;;;;;;26.95;18.83;;;;;;;;;;5019148;28;20480;-80
2023/02/05 08:02:45;;;;;;;32.72;22.88;;;;;;;;;;5028581;28;20398;-81
2023/02/05 08:05:11;;;;;;;14.88;11.13;;;;;;;;;;5029599;28;20405;-80
2023/02/05 08:07:37;;;;;;;8.85;7.60;;;;;;;;;;5023834;28;20718;-80
2023/02/05 08:10:05;;;;;;;8.77;7.88;;;;;;;;;;5018370;28;20768;-81
2023/02/05 08:12:31;;;;;;;9.35;8.38;;;;;;;;;;5019424;28;20404;-80
2023/02/05 08:14:57;;;;;;;9.13;6.53;;;;;;;;;;5028700;28;20386;-80
2023/02/05 08:17:23;;;;;;;7.13;5.70;;;;;;;;;;5017943;28;20756;-80
2023/02/05 08:19:50;;;;;;;9.57;6.05;;;;;;;;;;5025507;28;20505;-82
2023/02/05 08:22:17;;;;;;;8.40;6.28;;;;;;;;;;5028473;28;20883;-80
2023/02/05 08:24:44;;;;;;;7.85;5.70;;;;;;;;;;5010448;28;21273;-80
2023/02/05 08:27:10;;;;;;;9.73;6.18;;;;;;;;;;5009880;28;20496;-81
2023/02/05 08:29:36;;;;;;;7.68;5.93;;;;;;;;;;5022777;28;20455;-81
2023/02/05 08:32:02;;;;;;;6.90;5.55;;;;;;;;;;5026920;28;20403;-80
2023/02/05 08:34:28;;;;;;;7.93;5.82;;;;;;;;;;5026899;28;20400;-80
2023/02/05 08:36:56;;;;;;;7.45;5.57;;;;;;;;;;5025787;28;20404;-79
2023/02/05 08:39:22;;;;;;;7.78;5.60;;;;;;;;;;5021500;28;20421;-81
2023/02/05 08:41:48;;;;;;;6.55;5.75;;;;;;;;;;5022028;28;20436;-80
2023/02/05 08:44:14;;;;;;;7.00;5.63;;;;;;;;;;5011683;28;20395;-80
2023/02/05 08:46:40;;;;;;;9.48;5.78;;;;;;;;;;5009092;28;20830;-79
2023/02/05 08:49:06;;;;;;;7.40;5.57;;;;;;;;;;5008808;28;20411;-81
2023/02/05 08:51:34;;;;;;;6.60;5.53;;;;;;;;;;5011301;28;20441;-80
2023/02/05 08:54:00;;;;;;;7.20;5.60;;;;;;;;;;5009466;28;20427;-80
2023/02/05 08:56:26;;;;;;;7.57;5.80;;;;;;;;;;5011276;28;20386;-80
2023/02/05 08:58:52;;;;;;;7.05;5.50;;;;;;;;;;5010518;28;20758;-80
2023/02/05 09:01:18;;;;;;;8.90;6.00;;;;;;;;;;5009214;28;20793;-80
2023/02/05 09:03:45;;;;;;;6.68;5.57;;;;;;;;;;5010046;28;20375;-81
2023/02/05 09:06:13;;;;;;;6.40;5.20;;;;;;;;;;5010351;28;20822;-81
2023/02/05 09:08:39;;;;;;;8.02;5.15;;;;;;;;;;5024434;28;20380;-81
2023/02/05 09:11:05;;;;;;;7.32;4.90;;;;;;;;;;5009387;28;20451;-82
2023/02/05 09:13:32;;;;;;;6.32;4.95;;;;;;;;;;5013910;28;20454;-81
2023/02/05 09:15:58;;;;;;;5.80;4.80;;;;;;;;;;5027825;28;20402;-81
2023/02/05 09:18:24;;;;;;;7.50;5.82;;;;;;;;;;5019426;28;20407;-82
2023/02/05 09:20:50;;;;;;;8.13;5.22;;;;;;;;;;5025417;28;20413;-81
2023/02/05 09:23:18;;;;;;;5.78;5.10;;;;;;;;;;5013401;28;20464;-82
2023/02/05 09:25:44;;;;;;;6.43;5.32;;;;;;;;;;5009128;28;20885;-78
2023/02/05 09:28:11;;;;;;;6.38;4.95;;;;;;;;;;5026405;28;20441;-77
2023/02/05 09:30:38;;;;;;;7.55;4.97;;;;;;;;;;5037026;28;20427;-78
2023/02/05 09:33:04;;;;;;;6.85;4.60;;;;;;;;;;5029223;28;20394;-78
2023/02/05 09:35:31;;;;;;;6.70;4.90;;;;;;;;;;5034214;28;20449;-78
2023/02/05 09:37:58;;;;;;;6.15;4.65;;;;;;;;;;5033533;28;20389;-78
2023/02/05 09:40:26;;;;;;;6.38;4.78;;;;;;;;;;5027227;28;20425;-82
2023/02/05 09:43:27;;;;;;;6.28;4.57;;;;;;;;;;5005508;28;20398;-81
2023/02/05 09:45:54;;;;;;;7.35;4.35;;;;;;;;;;5004395;28;20387;-82
2023/02/05 09:48:38;;;;;;;4.47;3.97;;;;;;;;;;4999002;28;20402;-82
2023/02/05 09:51:05;;;;;;;6.40;4.28;;;;;;;;;;5008384;28;20462;-82
2023/02/05 09:53:36;;;;;;;5.00;4.00;;;;;;;;;;5012417;28;20403;-80
2023/02/05 09:56:03;;;;;;;5.90;3.90;;;;;;;;;;5026844;28;20423;-81
2023/02/05 09:58:34;;;;;;;5.80;3.83;;;;;;;;;;5024799;28;22239;-81
2023/02/05 10:01:02;;;;;;;7.00;4.72;;;;;;;;;;5004951;28;20459;-81
2023/02/05 10:03:41;;;;;;;7.57;4.60;;;;;;;;;;5017043;28;20407;-81
2023/02/05 10:06:22;;;;;;;4.38;3.97;;;;;;;;;;5007919;28;20374;-81
2023/02/05 10:09:09;;;;;;;6.35;4.18;;;;;;;;;;5006217;28;20481;-81
2023/02/05 10:11:41;;;;;;;6.38;4.22;;;;;;;;;;5007650;28;20415;-80
2023/02/05 10:14:26;;;;;;;6.10;4.43;;;;;;;;;;5009593;28;20375;-80
2023/02/05 10:16:52;;;;;;;5.03;4.18;;;;;;;;;;5008057;28;20900;-81
2023/02/05 10:19:41;;;;;;;6.28;4.38;;;;;;;;;;5008225;28;20395;-80
2023/02/05 10:22:14;;;;;;;5.75;4.25;;;;;;;;;;4998866;28;21139;-82
2023/02/05 10:24:46;;;;;;;5.78;4.20;;;;;;;;;;5006785;28;20405;-81
2023/02/05 10:27:18;;;;;;;5.93;4.30;;;;;;;;;;5007978;28;20412;-82
2023/02/05 10:29:44;;;;;;;6.07;4.20;;;;;;;;;;5008673;28;20376;-82
2023/02/05 10:32:21;;;;;;;5.45;4.70;;;;;;;;;;5008342;28;20387;-80
2023/02/05 10:34:58;;;;;;;5.50;4.47;;;;;;;;;;5007108;28;20399;-80
2023/02/05 10:37:36;;;;;;;4.53;3.60;;;;;;;;;;4996419;28;20838;-80
2023/02/05 10:40:10;;;;;;;5.85;3.80;;;;;;;;;;5007953;28;20403;-81
2023/02/05 10:42:40;;;;;;;5.45;3.80;;;;;;;;;;5006220;28;20813;-82
2023/02/05 10:45:12;;;;;;;4.28;3.70;;;;;;;;;;5010391;28;20426;-81
2023/02/05 10:47:58;;;;;;;4.33;3.37;;;;;;;;;;5009404;28;20393;-81
2023/02/05 10:50:30;;;;;;;5.60;3.92;;;;;;;;;;4990499;28;20411;-81
2023/02/05 10:52:56;;;;;;;3.67;3.10;;;;;;;;;;5014586;28;20402;-81
2023/02/05 10:55:22;;;;;;;5.80;5.10;;;;;;;;;;5025863;28;20385;-82
2023/02/05 10:57:48;;;;;;;6.03;3.90;;;;;;;;;;5031618;28;20886;-82
2023/02/05 11:00:15;;;;;;;6.50;5.43;;;;;;;;;;5030478;28;20401;-82
2023/02/05 11:02:43;;;;;;;5.60;4.53;;;;;;;;;;5011458;28;20477;-82
2023/02/05 11:05:37;;;;;;;3.95;3.42;;;;;;;;;;5010864;28;20861;-82
2023/02/05 11:08:03;;;;;;;6.07;5.20;;;;;;;;;;5009973;28;20383;-82
2023/02/05 11:10:30;;;;;;;4.70;3.97;;;;;;;;;;5023079;28;20397;-82
2023/02/05 11:12:59;;;;;;;3.83;3.15;;;;;;;;;;5028482;28;20423;-84
2023/02/05 11:15:27;;;;;;;4.07;2.88;;;;;;;;;;5030914;28;20443;-84
2023/02/05 11:17:56;;;;;;;4.10;2.75;;;;;;;;;;5029446;28;21006;-83
2023/02/05 11:20:25;;;;;;;3.58;2.70;;;;;;;;;;5029192;28;20405;-84
2023/02/05 11:23:04;;;;;;;4.50;2.63;;;;;;;;;;5032062;28;20496;-83
2023/02/05 11:25:30;;;;;;;4.13;2.60;;;;;;;;;;5015440;28;20418;-82
2023/02/05 11:28:00;;;;;;;3.80;2.55;;;;;;;;;;5009989;28;20805;-82
2023/02/05 11:30:30;;;;;;;5.22;2.60;;;;;;;;;;5009278;28;20439;-82
2023/02/05 11:32:57;;;;;;;4.38;2.38;;;;;;;;;;5011424;28;20738;-82
2023/02/05 11:35:24;;;;;;;3.08;2.30;;;;;;;;;;5010906;28;20394;-83
2023/02/05 11:38:10;;;;;;;3.72;2.15;;;;;;;;;;5024888;28;20935;-83
2023/02/05 11:40:37;;;;;;;3.08;2.17;;;;;;;;;;5010509;28;20908;-83
2023/02/05 11:43:05;;;;;;;3.13;2.10;;;;;;;;;;5028394;28;20437;-84
2023/02/05 11:45:33;;;;;;;2.97;2.17;;;;;;;;;;5031822;28;20440;-82
2023/02/05 11:48:05;;;;;;;3.83;2.28;;;;;;;;;;5031042;28;20389;-83
2023/02/05 11:50:31;;;;;;;4.97;2.17;;;;;;;;;;5030387;28;20422;-83
2023/02/05 11:53:06;;;;;;;4.25;2.53;;;;;;;;;;5026389;28;20405;-83
2023/02/05 11:55:33;;;;;;;4.78;2.30;;;;;;;;;;5028605;28;20380;-84
2023/02/05 11:58:00;;;;;;;3.92;2.08;;;;;;;;;;5030953;28;20465;-82
2023/02/05 12:00:26;;;;;;;4.07;2.50;;;;;;;;;;5029257;28;20418;-82
2023/02/05 12:03:23;;;;;;;3.85;2.30;;;;;;;;;;5031190;28;20575;-83
2023/02/05 12:06:09;;;;;;;4.97;2.60;;;;;;;;;;5014870;28;20409;-82
2023/02/05 12:08:38;;;;;;;6.13;2.60;;;;;;;;;;5005501;28;20838;-83
2023/02/05 12:11:23;;;;;;;4.25;2.40;;;;;;;;;;5010915;28;20370;-82
2023/02/05 12:13:52;;;;;;;2.80;2.40;;;;;;;;;;5010440;28;20453;-82
2023/02/05 12:16:40;;;;;;;4.63;2.67;;;;;;;;;;5011737;28;20378;-82
2023/02/05 12:19:22;;;;;;;5.47;2.53;;;;;;;;;;5008892;28;21102;-82
2023/02/05 12:22:02;;;;;;;4.32;2.30;;;;;;;;;;5007151;28;20409;-83
2023/02/05 12:24:34;;;;;;;4.47;2.42;;;;;;;;;;5006411;28;20399;-82
2023/02/05 12:27:08;;;;;;;3.55;2.55;;;;;;;;;;5010405;28;20380;-82
2023/02/05 12:29:46;;;;;;;4.05;2.65;;;;;;;;;;5011926;28;20460;-82
2023/02/05 12:32:27;;;;;;;3.88;2.60;;;;;;;;;;5023099;28;20500;-82
2023/02/05 12:34:53;;;;;;;3.78;2.15;;;;;;;;;;5028123;28;20377;-82
2023/02/05 12:37:19;;;;;;;3.60;2.40;;;;;;;;;;5008850;28;20939;-83
2023/02/05 12:39:50;;;;;;;3.90;2.17;;;;;;;;;;5008093;28;20399;-82
2023/02/05 12:42:23;;;;;;;4.55;2.42;;;;;;;;;;5008295;28;20896;-82
2023/02/05 12:44:56;;;;;;;2.70;2.13;;;;;;;;;;5005020;28;20481;-82
2023/02/05 12:47:25;;;;;;;4.90;2.70;;;;;;;;;;5008190;28;20375;-82
2023/02/05 12:50:07;;;;;;;6.75;2.60;;;;;;;;;;5004512;28;20419;-83
2023/02/05 12:52:40;;;;;;;5.03;2.10;;;;;;;;;;5007060;28;20372;-82
2023/02/05 12:55:24;;;;;;;3.92;2.40;;;;;;;;;;5009604;28;20410;-83
2023/02/05 12:57:57;;;;;;;6.28;2.60;;;;;;;;;;5006028;28;20441;-81
2023/02/05 13:00:25;;;;;;;3.28;2.53;;;;;;;;;;5009929;28;20402;-82
2023/02/05 13:03:04;;;;;;;4.53;2.40;;;;;;;;;;5004980;28;21789;-82
2023/02/05 13:05:33;;;;;;;4.90;2.40;;;;;;;;;;4998691;28;20450;-83
2023/02/05 13:08:32;;;;;;;3.75;2.50;;;;;;;;;;5007788;28;20383;-83
2023/02/05 13:11:27;;;;;;;4.57;2.40;;;;;;;;;;4967861;28;20393;-83
2023/02/05 13:14:09;;;;;;;5.40;2.65;;;;;;;;;;4986877;28;20432;-81
2023/02/05 13:16:44;;;;;;;3.80;2.47;;;;;;;;;;5009474;28;20593;-83
2023/02/05 13:19:13;;;;;;;3.50;2.27;;;;;;;;;;5009125;28;20469;-83
2023/02/05 13:30:14;;;;;;;3.50;2.50;;;;;;;;;;5005011;28;20409;-81
2023/02/05 13:32:42;;;;;;;4.47;2.70;;;;;;;;;;5007274;28;20573;-83
2023/02/05 13:35:09;;;;;;;4.70;2.83;;;;;;;;;;5002686;28;20423;-82
2023/02/05 13:37:35;;;;;;;4.72;3.75;;;;;;;;;;5005869;28;20409;-83
2023/02/05 13:40:24;;;;;;;7.70;5.13;;;;;;;;;;5006480;28;20802;-82
2023/02/05 13:42:50;;;;;;;5.72;3.30;;;;;;;;;;5006038;28;20406;-83
2023/02/05 13:45:19;;;;;;;5.13;2.63;;;;;;;;;;5007389;28;20378;-82
2023/02/05 13:47:45;;;;;;;11.13;7.90;;;;;;;;;;5007220;28;20830;-81
2023/02/05 13:50:30;;;;;;;5.30;3.05;;;;;;;;;;5004686;28;20383;-81
2023/02/05 13:53:13;;;;;;;4.35;2.97;;;;;;;;;;5004313;28;20398;-81
2023/02/05 13:55:46;;;;;;;3.87;3.27;;;;;;;;;;5006497;28;20395;-81
2023/02/05 13:58:22;;;;;;;4.57;3.03;;;;;;;;;;5003435;28;20474;-82
2023/02/05 14:01:00;;;;;;;4.72;3.17;;;;;;;;;;5008159;28;20414;-82
2023/02/05 14:03:26;;;;;;;2.72;2.45;;;;;;;;;;4999341;28;20390;-81
2023/02/05 14:05:53;;;;;;;4.07;2.50;;;;;;;;;;5012638;28;20388;-82
2023/02/05 14:08:24;;;;;;;3.55;2.72;;;;;;;;;;4997421;28;20381;-82
2023/02/05 14:10:58;;;;;;;4.43;3.08;;;;;;;;;;5002353;28;20885;-82
2023/02/05 14:13:32;;;;;;;3.92;2.75;;;;;;;;;;5001532;28;20854;-82
2023/02/05 14:16:18;;;;;;;5.18;2.58;;;;;;;;;;5005573;28;20379;-82
2023/02/05 14:18:47;;;;;;;4.70;2.50;;;;;;;;;;5003870;28;21838;-81
2023/02/05 14:21:39;;;;;;;3.67;2.50;;;;;;;;;;5009387;28;20904;-83
2023/02/05 14:24:24;;;;;;;3.75;2.60;;;;;;;;;;5007711;28;20390;-83
2023/02/05 14:26:52;;;;;;;3.53;2.63;;;;;;;;;;5010263;28;20363;-83
2023/02/05 14:29:37;;;;;;;4.30;2.43;;;;;;;;;;5004805;28;20878;-83
2023/02/05 14:32:03;;;;;;;4.80;3.13;;;;;;;;;;5008727;28;20427;-82
2023/02/05 14:34:32;;;;;;;3.28;2.20;;;;;;;;;;5008255;28;20387;-83
2023/02/05 14:36:58;;;;;;;4.50;2.10;;;;;;;;;;5007802;28;20383;-84
2023/02/05 14:39:29;;;;;;;3.22;2.53;;;;;;;;;;5009558;28;20411;-83
2023/02/05 14:41:58;;;;;;;3.22;2.40;;;;;;;;;;5014973;28;20410;-82
2023/02/05 14:44:26;;;;;;;3.50;2.10;;;;;;;;;;5008991;28;20547;-82
2023/02/05 14:46:58;;;;;;;3.38;2.35;;;;;;;;;;5009897;28;20375;-83
2023/02/05 14:49:25;;;;;;;4.57;2.60;;;;;;;;;;5008307;28;20855;-83
2023/02/05 14:52:01;;;;;;;3.28;2.60;;;;;;;;;;5001279;28;20393;-82
2023/02/05 14:54:30;;;;;;;4.25;2.47;;;;;;;;;;5009585;28;20376;-83
2023/02/05 14:57:08;;;;;;;5.85;4.28;;;;;;;;;;5009214;28;20399;-82
2023/02/05 14:59:44;;;;;;;6.07;3.30;;;;;;;;;;5001693;28;20462;-83
2023/02/05 15:02:28;;;;;;;3.95;2.60;;;;;;;;;;5000642;28;20385;-81
2023/02/05 15:04:57;;;;;;;8.23;6.97;;;;;;;;;;5025155;28;20869;-82
2023/02/05 15:07:26;;;;;;;3.50;2.92;;;;;;;;;;5001810;28;20485;-82